METAR Data
IDs: Format: Raw Decoded Include TAF

Data at: 0120 UTC 25 Mar 2019

KDBQ 250103Z AUTO 06012KT 10SM FEW009 OVC015 07/04 A3008 RMK AO2 T00670044
KDBQ 250053Z 06014KT 10SM SCT004 SCT009 OVC013 07/04 A3008 RMK AO2 SLP192 T00670044
KDBQ 250026Z 05013KT 5SM BR OVC004 07/06 A3007 RMK AO2 T00670056
KDBQ 250001Z 05012KT 5SM BR OVC005 07/06 A3006 RMK AO2 T00670056
KDBQ 242353Z 04012KT 4SM BR OVC004 07/06 A3006 RMK AO2 SLP186 T00670056 10078 20061 51008
KDBQ 242253Z 05011KT 6SM BR OVC004 07/06 A3005 RMK AO2 SLP185 T00720061
KDBQ 242153Z 04008KT 5SM BR OVC007 07/06 A3004 RMK AO2 CIG 005V011 SLP181 T00720061
KDBQ 242053Z 04007KT 4SM BR BKN006 OVC028 08/06 A3004 RMK AO2 SLP178 T00780061 53001
KDBQ 242019Z 06007KT 4SM BR SCT006 BKN024 OVC028 08/06 A3003 RMK AO2 T00780061
KDBQ 242000Z 05007KT 4SM BR BKN007 OVC022 07/06 A3003 RMK AO2 CIG 002V008 T00720061
KDBQ 241953Z 05008KT 3SM BR SCT007 OVC023 08/06 A3003 RMK AO2 SLP175 T00780061
KDBQ 241907Z 04005KT 3SM BR BKN007 OVC020 08/07 A3003 RMK AO2 CIG 003V009 T00780067
KDBQ 241853Z 07007KT 5SM BR SCT006 BKN020 OVC032 08/06 A3003 RMK AO2 SLP176 T00780061
KDBQ 241851Z 06006KT 5SM BR FEW006 BKN020 OVC031 08/06 A3003 RMK AO2
KDBQ 241833Z 11005KT 4SM BR FEW003 OVC031 07/06 A3004 RMK AO2 T00670061
KDBQ 241823Z 14007KT 3SM BR SCT003 BKN019 OVC031 07/06 A3004 RMK AO2 T00670061
KDBQ 241801Z 11006KT 2SM BR OVC003 07/06 A3005 RMK AO2 T00670056
KDBQ 241753Z 10006KT 1 3/4SM BR OVC003 06/06 A3005 RMK AO2 SLP182 60003 T00610056 10061 20044 58002
KDBQ 241748Z 10006KT 1 1/4SM R36/5000VP6000FT BR OVC003 06/06 A3005 RMK AO2
KDBQ 241715Z 11005KT 3/4SM R36/4000V4500FT BR OVC002 06/06 A3006 RMK AO2 T00610056
KDBQ 241700Z 12005KT 1/4SM R36/2000V2800FT FG VV002 06/06 A3006 RMK AO2 T00610056
KDBQ 241653Z 12006KT 1/4SM R36/1600V2200FT FG VV002 06/06 A3006 RMK AO2 SLP185 T00610056
KDBQ 241649Z 12006KT 1/4SM R36/1600V1800FT FG VV002 06/06 A3006 RMK AO2
KDBQ 241640Z 13005KT 1/4SM R36/1800V2600FT FG VV002 06/06 A3006 RMK AO2 T00610056
KDBQ 241631Z 11005KT 1/2SM R36/2600V3500FT FG OVC002 06/06 A3006 RMK AO2 T00610056
KDBQ 241619Z 09006KT 1/4SM R36/2200V2600FT FG VV002 06/06 A3006 RMK AO2 T00610056
KDBQ 241553Z 09005KT 1/4SM R36/1200V1400FT FG VV002 06/06 A3006 RMK AO2 SLP187 T00610056
KDBQ 241543Z 11006KT 1/4SM R36/1400V1600FT FG VV002 06/06 A3007 RMK AO2 T00610056
KDBQ 241530Z 12006KT 1/4SM R36/1800V2600FT FG VV002 06/06 A3007 RMK AO2 T00610056
KDBQ 241453Z 12005KT 1/2SM R36/3500FT FG OVC002 06/06 A3006 RMK AO2 SLP186 60003 T00610056 58002
KDBQ 241446Z 10005KT 1/2SM R36/3000V4000FT FG OVC002 06/05 A3006 RMK AO2 T00560050
KDBQ 241353Z 10005KT 1/2SM R36/3500V4500FT FG OVC002 06/04 A3006 RMK AO2 RAE18 SLP186 P0003 T00560044
KDBQ 241332Z 12005KT 1 1/2SM BR OVC003 05/04 A3007 RMK AO2 RAE18 P0003 T00500044
KDBQ 241324Z 12005KT 2SM BR BKN003 OVC017 05/04 A3007 RMK AO2 RAE18 P0003 T00500044
KDBQ 241315Z 12005KT 2SM -RA BR BKN005 OVC017 05/04 A3007 RMK AO2 P0003 T00500044
KDBQ 241309Z 11004KT 1 1/2SM -RA BR SCT005 OVC017 05/04 A3007 RMK AO2 P0003 T00500044
KDBQ 241302Z 10005KT 1 1/2SM RA BR BKN018 OVC055 05/04 A3007 RMK AO2 P0001 T00500044
KDBQ 241253Z 10006KT 2SM -RA BR BKN018 BKN047 OVC055 05/04 A3007 RMK AO2 RAB52 SLP188 P0000 T00500044
KDBQ 241250Z 10006KT 2SM BR SCT018 BKN047 OVC055 05/04 A3006 RMK AO2
KDBQ 241239Z 10006KT 3SM BR SCT020 BKN047 OVC055 05/04 A3006 RMK AO2 T00500039
KDBQ 241210Z 11007KT 4SM BR OVC016 05/04 A3007 RMK AO2 T00500039
KDBQ 241153Z 11006KT 5SM BR BKN014 OVC024 05/04 A3007 RMK AO2 SLP188 P0001 60012 70012 T00500039 10061 20039 55008
KDBQ 241148Z 12006KT 5SM BR BKN014 OVC024 04/04 A3007 RMK AO2 P0001
KDBQ 241128Z 12007KT 6SM BR BKN026 OVC042 05/03 A3007 RMK AO2 P0001 T00500033
KDBQ 241053Z 10005KT 6SM BR OVC043 05/03 A3008 RMK AO2 RAE29 SLP192 P0001 T00500033
KDBQ 240953Z AUTO 13003KT 6SM -RA BR OVC055 05/03 A3009 RMK AO2 SLP197 P0002 T00500033
KDBQ 240853Z AUTO 22003KT 5SM -RA BR BKN049 OVC060 04/03 A3011 RMK AO2 SLP202 P0007 60008 T00390028 58008
KDBQ 240753Z AUTO 19010KT 6SM -RA OVC048 05/02 A3013 RMK AO2 RAB32 SLP208 P0001 T00500017
KDBQ 240653Z AUTO 16010KT 10SM BKN080 OVC100 06/00 A3012 RMK AO2 SLP206 T00610000
KDBQ 240553Z AUTO 16008KT 10SM FEW120 06/00 A3013 RMK AO2 SLP210 T00560000 10089 20056 401171022 58004
KDBQ 240453Z AUTO 15009KT 10SM OVC110 07/00 A3014 RMK AO2 SLP214 T00670000
KDBQ 240353Z AUTO 15009KT 10SM OVC110 07/00 A3014 RMK AO2 SLP215 T00670000
KDBQ 240253Z AUTO 15008KT 10SM BKN110 07/00 A3015 RMK AO2 SLP216 T00720000 57008
KDBQ 240153Z AUTO 15006KT 10SM FEW120 07/00 A3016 RMK AO2 SLP221 T00670000
KDBQ 240053Z 13005KT 10SM CLR 08/00 A3016 RMK AO2 SLP222 T00780000
KDBQ 232353Z 14005KT 10SM CLR 09/01 A3017 RMK AO2 SLP226 T00890006 10117 20083 56010
KDBQ 232253Z 18008KT 10SM CLR 11/00 A3018 RMK AO2 SLP229 T01060000
KDBQ 232153Z 17011KT 10SM CLR 11/M01 A3019 RMK AO2 SLP230 T01061006
KDBQ 232053Z 18011G16KT 10SM CLR 11/M01 A3020 RMK AO2 SLP234 T01061011 56018
KDBQ 231953Z 16009KT 10SM CLR 11/M01 A3021 RMK AO2 SLP237 T01061006
KDBQ 231853Z 17011G18KT 10SM CLR 10/M01 A3024 RMK AO2 SLP246 T01001011
KDBQ 231753Z 17009KT 10SM CLR 09/00 A3026 RMK AO2 SLP254 T00890000 10089 21022 58008
KDBQ 231653Z 19012KT 10SM CLR 08/00 A3027 RMK AO2 SLP259 T00780000
KDBQ 231553Z 17009KT 10SM CLR 05/M01 A3028 RMK AO2 SLP262 T00501011
KDBQ 231453Z 18011KT 10SM CLR 03/M02 A3028 RMK AO2 SLP265 T00281022 50005
KDBQ 231353Z 18009KT 10SM CLR 01/M03 A3029 RMK AO2 SLP268 T00061028